Time;durP1;ratioP1;P1;durP2;ratioP2;P2;SDS_P1;SDS_P2;PMS_P1;PMS_P2;Temp;Humidity;BMP_temperature;BMP_pressure;BME280_temperature;BME280_humidity;BME280_pressure;Samples;Min_cycle;Max_cycle;Signal;HPM_P1;HPM_P2
2021/12/16 00:09:11;;;;;;;32.42;23.27;;;10.00;99.90;;;;;;5085216;28;20023;-60
2021/12/16 00:33:30;;;;;;;29.63;20.10;;;10.10;99.90;;;;;;5088149;28;20115;-60
2021/12/16 00:35:56;;;;;;;32.83;21.08;;;10.10;99.90;;;;;;5087876;28;20074;-60
2021/12/16 00:38:21;;;;;;;31.70;20.50;;;10.10;99.90;;;;;;5087726;28;20032;-61
2021/12/16 00:40:47;;;;;;;32.92;21.83;;;10.00;99.90;;;;;;5087511;28;20043;-60
2021/12/16 00:43:23;;;;;;;33.30;21.55;;;10.00;99.90;;;;;;5084852;28;20028;-60
2021/12/16 00:46:14;;;;;;;32.88;19.95;;;10.00;99.90;;;;;;5084718;28;20104;-60
2021/12/16 00:54:10;;;;;;;28.20;18.80;;;9.90;99.90;;;;;;5088750;28;20506;-60
2021/12/16 00:56:37;;;;;;;27.80;18.73;;;9.90;99.90;;;;;;5091551;28;20399;-60
2021/12/16 00:59:05;;;;;;;28.70;18.77;;;9.90;99.90;;;;;;5091152;28;20035;-61
2021/12/16 01:04:26;;;;;;;34.88;23.30;;;9.90;99.90;;;;;;5091482;28;20542;-60
2021/12/16 01:07:01;;;;;;;37.38;24.30;;;9.90;99.90;;;;;;5091000;28;20031;-60
2021/12/16 01:34:21;;;;;;;38.15;22.33;;;9.90;99.90;;;;;;5090718;28;20077;-60
2021/12/16 01:52:30;;;;;;;27.40;19.30;;;9.90;99.90;;;;;;5090183;28;20024;-60
2021/12/16 01:55:07;;;;;;;29.92;20.25;;;10.00;99.90;;;;;;5090181;28;20546;-60
2021/12/16 01:57:42;;;;;;;31.77;20.75;;;9.90;99.90;;;;;;5088154;28;20035;-60
2021/12/16 02:00:32;;;;;;;31.38;21.33;;;9.90;99.90;;;;;;5090026;28;20130;-60
2021/12/16 02:03:02;;;;;;;29.83;20.63;;;10.00;99.90;;;;;;5088326;28;20399;-60
2021/12/16 02:08:28;;;;;;;28.63;18.10;;;9.90;99.90;;;;;;5088516;28;19915;-60
2021/12/16 02:11:42;;;;;;;31.17;19.30;;;9.90;99.90;;;;;;5084382;28;20480;-60
2021/12/16 02:28:04;;;;;;;30.35;19.98;;;9.90;99.90;;;;;;5090024;28;20035;-60
2021/12/16 02:33:49;;;;;;;27.75;18.88;;;9.90;99.90;;;;;;5085142;28;20053;-61
2021/12/16 02:38:47;;;;;;;30.35;20.42;;;9.90;99.90;;;;;;5089712;28;20027;-60
2021/12/16 02:41:14;;;;;;;31.67;19.05;;;9.90;99.90;;;;;;5089587;28;20028;-60
2021/12/16 02:44:06;;;;;;;27.63;18.27;;;10.00;99.90;;;;;;5089294;28;20504;-60
2021/12/16 02:49:15;;;;;;;27.45;17.98;;;10.00;99.90;;;;;;5086765;28;20549;-60
2021/12/16 02:51:40;;;;;;;28.52;18.80;;;10.00;99.90;;;;;;5089513;28;20040;-60
2021/12/16 02:54:06;;;;;;;27.10;19.00;;;9.90;99.90;;;;;;5065352;28;20050;-60
2021/12/16 02:56:33;;;;;;;28.35;18.67;;;10.00;99.90;;;;;;5089974;28;20052;-60
2021/12/16 02:59:00;;;;;;;30.90;18.73;;;10.00;99.90;;;;;;5086906;28;20047;-60
2021/12/16 03:01:31;;;;;;;29.13;18.08;;;10.00;99.90;;;;;;5088310;28;20023;-60
2021/12/16 03:03:59;;;;;;;28.38;19.35;;;10.00;99.90;;;;;;5080474;28;20012;-60
2021/12/16 03:06:26;;;;;;;39.35;23.35;;;10.00;99.90;;;;;;5088652;28;20016;-60
2021/12/16 03:08:52;;;;;;;31.08;22.15;;;9.90;99.90;;;;;;5086085;28;20024;-60
2021/12/16 03:11:26;;;;;;;32.47;21.17;;;9.90;99.90;;;;;;5088689;28;20553;-60
2021/12/16 03:14:18;;;;;;;35.08;21.10;;;9.90;99.90;;;;;;5088073;28;20069;-60
2021/12/16 03:17:15;;;;;;;25.67;18.60;;;9.90;99.90;;;;;;5085650;28;20104;-60
2021/12/16 03:19:54;;;;;;;28.35;18.45;;;9.90;99.90;;;;;;5088901;28;20035;-60
2021/12/16 03:22:47;;;;;;;29.20;19.25;;;9.90;99.90;;;;;;5062146;28;20032;-60
2021/12/16 03:25:25;;;;;;;27.58;17.55;;;9.80;99.90;;;;;;5083124;28;20112;-60
2021/12/16 03:30:38;;;;;;;24.48;16.98;;;9.80;99.90;;;;;;5071217;28;20040;-60
2021/12/16 03:33:22;;;;;;;27.30;17.63;;;9.80;99.90;;;;;;5073374;28;20399;-60
2021/12/16 03:38:29;;;;;;;26.48;16.67;;;9.80;99.90;;;;;;5076617;28;20040;-60
2021/12/16 03:40:55;;;;;;;28.95;18.85;;;9.80;99.90;;;;;;5070895;28;20029;-60
2021/12/16 03:43:21;;;;;;;27.40;19.35;;;9.80;99.90;;;;;;5073557;28;20028;-60
2021/12/16 03:49:08;;;;;;;26.85;18.15;;;9.70;99.90;;;;;;5068013;28;20040;-60
2021/12/16 03:51:40;;;;;;;27.23;16.83;;;9.70;99.90;;;;;;5055308;28;20107;-60
2021/12/16 03:54:27;;;;;;;31.55;18.90;;;9.60;99.90;;;;;;5073311;28;20028;-60
2021/12/16 03:56:54;;;;;;;28.05;17.45;;;9.60;99.90;;;;;;5067949;28;20103;-60
2021/12/16 03:59:24;;;;;;;26.15;17.42;;;9.60;99.90;;;;;;5050033;28;20024;-60
2021/12/16 04:01:50;;;;;;;29.58;18.55;;;9.60;99.90;;;;;;5072855;28;20434;-60
2021/12/16 04:04:16;;;;;;;26.77;18.40;;;9.60;99.90;;;;;;5067793;28;20028;-60
2021/12/16 04:06:42;;;;;;;25.88;17.63;;;9.50;99.90;;;;;;5074523;28;20069;-60
2021/12/16 04:09:10;;;;;;;27.30;17.77;;;9.50;99.90;;;;;;5068014;28;20102;-60
2021/12/16 04:11:42;;;;;;;28.13;18.00;;;9.50;99.90;;;;;;5070592;28;20028;-60
2021/12/16 04:14:12;;;;;;;26.27;17.48;;;9.50;99.90;;;;;;5071895;28;20102;-60
2021/12/16 04:16:52;;;;;;;28.77;19.45;;;9.50;99.90;;;;;;5072383;28;20038;-60
2021/12/16 04:19:24;;;;;;;27.35;18.50;;;9.50;99.90;;;;;;5052345;28;20418;-60
2021/12/16 04:22:01;;;;;;;32.50;20.55;;;9.40;99.90;;;;;;5068092;28;20438;-60
2021/12/16 04:24:28;;;;;;;32.75;20.05;;;9.40;99.90;;;;;;5078643;28;20023;-60
2021/12/16 04:26:57;;;;;;;31.83;19.98;;;9.40;99.90;;;;;;5076762;28;20024;-60
2021/12/16 04:29:23;;;;;;;30.75;19.38;;;9.30;99.90;;;;;;5070419;28;20043;-60
2021/12/16 04:31:51;;;;;;;28.45;17.73;;;9.30;99.90;;;;;;5074682;28;20012;-61
2021/12/16 04:34:45;;;;;;;26.35;17.52;;;9.30;99.90;;;;;;5067008;28;20055;-60
2021/12/16 04:37:11;;;;;;;27.25;17.90;;;9.30;99.90;;;;;;5075238;28;20025;-60
2021/12/16 04:39:38;;;;;;;27.13;17.45;;;9.20;99.90;;;;;;5079026;28;20035;-60
2021/12/16 04:42:05;;;;;;;28.92;18.27;;;9.30;99.90;;;;;;5058903;28;20852;-60
2021/12/16 04:44:32;;;;;;;28.52;18.98;;;9.20;99.90;;;;;;5074294;28;20052;-60
2021/12/16 04:47:19;;;;;;;25.85;16.55;;;9.20;99.90;;;;;;5071256;28;20074;-60
2021/12/16 04:49:45;;;;;;;28.85;18.88;;;9.20;99.90;;;;;;5079484;28;20055;-60
2021/12/16 04:52:15;;;;;;;29.05;18.48;;;9.20;99.90;;;;;;5079613;28;20407;-60
2021/12/16 04:54:41;;;;;;;26.73;17.60;;;9.20;99.90;;;;;;5074195;28;20028;-60
2021/12/16 04:57:08;;;;;;;25.52;17.52;;;9.20;99.90;;;;;;5073944;28;20115;-60
2021/12/16 04:59:35;;;;;;;27.40;17.85;;;9.10;99.90;;;;;;5081941;28;20070;-60
2021/12/16 05:02:08;;;;;;;25.38;17.05;;;9.10;99.90;;;;;;5076209;28;20090;-60
2021/12/16 05:04:34;;;;;;;27.13;16.92;;;9.10;99.90;;;;;;5065635;28;20432;-60
2021/12/16 05:07:00;;;;;;;25.75;16.77;;;9.10;99.90;;;;;;5078053;28;20060;-60
2021/12/16 05:12:11;;;;;;;26.60;17.65;;;9.10;99.90;;;;;;5070940;28;20028;-60
2021/12/16 05:14:37;;;;;;;25.35;17.10;;;9.10;99.90;;;;;;5069486;28;20031;-60
2021/12/16 05:17:09;;;;;;;25.58;16.52;;;9.10;99.90;;;;;;5076272;28;20041;-60
2021/12/16 05:19:35;;;;;;;24.63;17.08;;;9.00;99.90;;;;;;5075147;28;20025;-60
2021/12/16 05:24:45;;;;;;;25.23;17.40;;;9.00;99.90;;;;;;5073703;28;20038;-60
2021/12/16 05:27:12;;;;;;;28.45;16.80;;;9.00;99.90;;;;;;5076143;28;20407;-60
2021/12/16 05:29:38;;;;;;;23.05;14.77;;;9.00;99.90;;;;;;5077997;28;20103;-60
2021/12/16 05:32:05;;;;;;;24.67;14.52;;;8.90;99.90;;;;;;5076830;28;20046;-60
2021/12/16 05:34:30;;;;;;;23.33;14.57;;;8.90;99.90;;;;;;5074424;28;20496;-60
2021/12/16 05:36:57;;;;;;;21.98;15.00;;;8.80;99.90;;;;;;5077784;28;20039;-60
2021/12/16 05:39:23;;;;;;;23.65;15.07;;;8.80;99.90;;;;;;5076274;28;20102;-60
2021/12/16 05:41:49;;;;;;;20.58;14.52;;;8.80;99.90;;;;;;5075857;28;20021;-60
2021/12/16 05:44:16;;;;;;;24.88;15.05;;;8.80;99.90;;;;;;5068827;28;20036;-60
2021/12/16 05:46:42;;;;;;;24.52;14.10;;;8.70;99.90;;;;;;5073139;28;20416;-60
2021/12/16 05:49:16;;;;;;;22.58;13.85;;;8.70;99.90;;;;;;5072795;28;20526;-61
2021/12/16 05:51:44;;;;;;;36.75;13.80;;;8.70;99.90;;;;;;5075489;28;20017;-60
2021/12/16 05:54:11;;;;;;;27.42;13.80;;;8.60;99.90;;;;;;5072683;28;20027;-60
2021/12/16 05:56:38;;;;;;;22.95;13.75;;;8.60;99.90;;;;;;5077316;28;20027;-60
2021/12/16 05:59:05;;;;;;;19.67;13.23;;;8.60;99.90;;;;;;5058637;28;20107;-60
2021/12/16 06:01:36;;;;;;;28.75;14.98;;;8.60;99.90;;;;;;5073916;28;20023;-60
2021/12/16 06:04:08;;;;;;;44.22;14.40;;;8.60;99.90;;;;;;5076983;28;20024;-60
2021/12/16 06:06:34;;;;;;;76.22;14.25;;;8.60;99.90;;;;;;5071049;28;20066;-60
2021/12/16 06:09:24;;;;;;;63.63;12.48;;;8.50;99.90;;;;;;5078211;28;20458;-60
2021/12/16 06:11:52;;;;;;;107.90;13.07;;;8.60;99.90;;;;;;5075857;28;20036;-60
2021/12/16 06:14:40;;;;;;;64.70;11.82;;;8.50;99.90;;;;;;5071524;28;20039;-60
2021/12/16 06:26:28;;;;;;;36.95;9.65;;;8.30;99.90;;;;;;5069420;28;20032;-61
2021/12/16 06:28:40;;;;;;;32.53;8.82;;;8.20;99.90;;;;;;5073474;28;20392;-60
2021/12/16 06:31:05;;;;;;;34.13;9.18;;;8.10;99.90;;;;;;5073062;28;20020;-60
2021/12/16 06:33:31;;;;;;;41.38;9.13;;;8.10;99.90;;;;;;5072001;28;20362;-60
2021/12/16 06:35:57;;;;;;;24.27;8.85;;;8.10;99.90;;;;;;5090016;28;20063;-60
2021/12/16 06:38:24;;;;;;;22.92;9.05;;;8.00;99.90;;;;;;5086853;28;20040;-60
2021/12/16 06:40:50;;;;;;;23.15;8.93;;;8.00;99.90;;;;;;5054192;28;20086;-60
2021/12/16 06:43:17;;;;;;;26.05;8.60;;;8.00;99.90;;;;;;5074493;28;20020;-60
2021/12/16 06:45:47;;;;;;;16.85;8.13;;;8.00;99.90;;;;;;5083691;28;20356;-60
2021/12/16 06:48:18;;;;;;;23.65;8.00;;;8.00;99.90;;;;;;5055698;28;20033;-60
2021/12/16 06:50:50;;;;;;;17.95;7.97;;;8.00;99.90;;;;;;5076314;28;20020;-60
2021/12/16 06:53:24;;;;;;;19.95;7.95;;;8.00;99.90;;;;;;5092181;28;20104;-60
2021/12/16 06:56:05;;;;;;;16.63;8.10;;;7.90;99.90;;;;;;5093177;28;20452;-60
2021/12/16 06:58:44;;;;;;;22.15;7.78;;;7.90;99.90;;;;;;5074751;28;20063;-60
2021/12/16 07:01:17;;;;;;;19.17;7.68;;;7.90;99.90;;;;;;5077184;28;20501;-60
2021/12/16 07:03:47;;;;;;;13.55;7.50;;;7.80;99.90;;;;;;5093018;28;20106;-60
2021/12/16 07:06:24;;;;;;;13.25;7.47;;;7.80;99.90;;;;;;5074785;28;20051;-60
2021/12/16 07:08:54;;;;;;;17.90;7.30;;;7.80;99.90;;;;;;5087042;28;20035;-60
2021/12/16 07:11:19;;;;;;;;;;;7.80;99.90;;;;;;5093394;28;20028;-60
2021/12/16 07:13:56;;;;;;;11.27;6.50;;;7.70;99.90;;;;;;5092834;28;20370;-60
2021/12/16 07:16:22;;;;;;;16.33;7.10;;;7.70;99.90;;;;;;5092676;28;20028;-60
2021/12/16 07:18:48;;;;;;;12.82;6.45;;;7.70;99.90;;;;;;5092730;28;20038;-59
2021/12/16 07:21:13;;;;;;;10.27;7.45;;;7.70;99.90;;;;;;5092491;28;20102;-60
2021/12/16 07:23:39;;;;;;;12.35;7.47;;;7.70;99.90;;;;;;5092517;28;20035;-60
2021/12/16 07:26:04;;;;;;;11.90;7.30;;;7.70;99.90;;;;;;5092806;28;20472;-60
2021/12/16 07:28:30;;;;;;;11.65;7.47;;;7.70;99.90;;;;;;5092249;28;20123;-60
2021/12/16 07:30:57;;;;;;;9.93;7.35;;;7.70;99.90;;;;;;5092637;28;20066;-60
2021/12/16 07:33:22;;;;;;;11.50;7.55;;;7.60;99.90;;;;;;5091609;28;20112;-60
2021/12/16 07:35:49;;;;;;;12.27;7.85;;;7.70;99.90;;;;;;5091016;28;20484;-60
2021/12/16 07:38:16;;;;;;;19.40;9.35;;;7.70;99.90;;;;;;5088494;28;20024;-60
2021/12/16 07:40:43;;;;;;;16.25;8.93;;;7.70;99.90;;;;;;5091666;28;20048;-60
2021/12/16 07:45:42;;;;;;;10.82;8.68;;;7.70;99.90;;;;;;5087619;28;20143;-60
2021/12/16 07:48:09;;;;;;;14.63;8.23;;;7.70;99.90;;;;;;5072412;28;20028;-60
2021/12/16 07:50:35;;;;;;;21.50;8.80;;;7.70;99.90;;;;;;5088474;28;20130;-60
2021/12/16 07:53:01;;;;;;;17.75;8.93;;;7.70;99.90;;;;;;5091060;28;20058;-60
2021/12/16 07:55:27;;;;;;;16.63;8.82;;;7.70;99.90;;;;;;5091018;28;20512;-60
2021/12/16 07:57:52;;;;;;;22.85;8.45;;;7.70;99.90;;;;;;5084971;28;20479;-60
2021/12/16 08:00:22;;;;;;;17.83;8.85;;;7.60;99.90;;;;;;5086199;28;20032;-60
2021/12/16 08:02:47;;;;;;;13.82;8.23;;;7.60;99.90;;;;;;5090768;28;20016;-60
2021/12/16 08:05:15;;;;;;;15.30;7.70;;;7.60;99.90;;;;;;5089052;28;20107;-60
2021/12/16 08:07:42;;;;;;;16.73;8.20;;;7.60;99.90;;;;;;5089446;28;20032;-59
2021/12/16 08:10:18;;;;;;;15.10;8.25;;;7.70;99.90;;;;;;5073690;28;20085;-60
2021/12/16 08:12:43;;;;;;;16.58;9.30;;;7.70;99.90;;;;;;5092037;28;20032;-60
2021/12/16 08:15:24;;;;;;;13.70;9.15;;;7.60;99.90;;;;;;5073762;28;20024;-60
2021/12/16 08:17:50;;;;;;;21.83;12.48;;;7.70;99.90;;;;;;5091429;28;20519;-60
2021/12/16 08:20:18;;;;;;;16.45;12.50;;;7.60;99.90;;;;;;5091116;28;20027;-60
2021/12/16 08:22:45;;;;;;;21.65;11.75;;;7.50;99.90;;;;;;5091923;28;20024;-60
2021/12/16 08:25:11;;;;;;;20.58;12.55;;;7.40;99.90;;;;;;5091062;28;20027;-60
2021/12/16 08:27:39;;;;;;;21.10;12.43;;;7.40;99.90;;;;;;5090607;28;20027;-60
2021/12/16 08:30:07;;;;;;;17.42;11.10;;;7.40;99.90;;;;;;5089391;28;20055;-60
2021/12/16 08:32:33;;;;;;;18.38;9.57;;;7.50;99.90;;;;;;5084183;28;20047;-60
2021/12/16 08:34:58;;;;;;;22.70;10.25;;;7.60;99.90;;;;;;5089131;28;20117;-60
2021/12/16 08:37:24;;;;;;;18.10;10.65;;;7.60;99.90;;;;;;5076819;28;20024;-60
2021/12/16 08:39:51;;;;;;;16.52;10.98;;;7.70;99.90;;;;;;5090522;28;20012;-60
2021/12/16 08:42:17;;;;;;;26.65;10.55;;;7.70;99.90;;;;;;5087862;28;20089;-60
2021/12/16 08:44:42;;;;;;;15.35;10.20;;;7.70;99.90;;;;;;5091290;28;20455;-60
2021/12/16 08:47:13;;;;;;;16.42;9.35;;;7.80;99.90;;;;;;5091439;28;20036;-60
2021/12/16 08:49:40;;;;;;;16.48;10.70;;;7.80;99.90;;;;;;5091682;28;20032;-60
2021/12/16 08:52:09;;;;;;;21.48;10.15;;;7.80;99.90;;;;;;5091569;28;20039;-60
2021/12/16 08:54:36;;;;;;;13.13;9.48;;;7.80;99.90;;;;;;5091454;28;20445;-60
2021/12/16 08:57:19;;;;;;;;;;;;;;;;;;;;;
2021/12/16 08:59:47;;;;;;;27.42;10.93;;;7.80;99.90;;;;;;5091525;28;20034;-60
2021/12/16 09:02:13;;;;;;;19.38;10.20;;;7.80;99.90;;;;;;5091480;28;20111;-60
2021/12/16 09:04:40;;;;;;;15.02;10.13;;;7.90;99.90;;;;;;5091385;28;20067;-60
2021/12/16 09:07:09;;;;;;;30.70;9.43;;;7.90;99.90;;;;;;5091127;28;20028;-60
2021/12/16 09:09:36;;;;;;;23.65;10.15;;;8.00;99.90;;;;;;5091306;28;20476;-60
2021/12/16 09:12:25;;;;;;;18.55;11.35;;;8.00;99.90;;;;;;5091005;28;20577;-60
2021/12/16 09:14:51;;;;;;;14.57;8.60;;;8.10;99.90;;;;;;5094887;28;20099;-60
2021/12/16 09:17:17;;;;;;;18.77;10.93;;;8.00;99.90;;;;;;5076508;28;20143;-60
2021/12/16 09:19:47;;;;;;;22.17;9.80;;;8.00;99.90;;;;;;5076880;28;20109;-60
2021/12/16 09:22:15;;;;;;;17.92;8.57;;;8.10;99.90;;;;;;5094841;28;20062;-60
2021/12/16 09:24:56;;;;;;;27.48;8.88;;;8.10;99.90;;;;;;5094667;28;20012;-60
2021/12/16 09:27:22;;;;;;;21.55;9.02;;;8.10;99.90;;;;;;5094987;28;20027;-60
2021/12/16 09:29:49;;;;;;;17.85;9.23;;;8.10;99.90;;;;;;5075796;28;20111;-60
2021/12/16 09:32:16;;;;;;;22.35;9.63;;;8.10;99.90;;;;;;5094132;28;20016;-60
2021/12/16 09:34:43;;;;;;;23.15;9.32;;;8.20;99.90;;;;;;5094550;28;20396;-59
2021/12/16 09:37:09;;;;;;;19.42;11.93;;;8.20;99.90;;;;;;5059595;28;20369;-59
2021/12/16 09:39:47;;;;;;;23.38;10.63;;;8.20;99.90;;;;;;5094641;28;20153;-60
2021/12/16 09:42:44;;;;;;;29.70;10.77;;;8.10;99.90;;;;;;5094175;28;20035;-60
2021/12/16 09:45:11;;;;;;;23.05;9.82;;;8.20;99.90;;;;;;5094359;28;20020;-60
2021/12/16 09:47:37;;;;;;;24.33;10.60;;;8.20;99.90;;;;;;5093204;28;20024;-60
2021/12/16 09:50:09;;;;;;;17.30;10.43;;;8.30;99.90;;;;;;5093408;28;20111;-60
2021/12/16 09:52:35;;;;;;;20.17;9.93;;;8.30;99.90;;;;;;5075600;28;20110;-59
2021/12/16 09:55:02;;;;;;;29.50;10.73;;;8.30;99.90;;;;;;5093487;28;20120;-60
2021/12/16 09:57:28;;;;;;;25.45;10.45;;;8.40;99.90;;;;;;5093868;28;20047;-60
2021/12/16 09:59:55;;;;;;;33.75;10.68;;;8.40;99.90;;;;;;5094313;28;20073;-60
2021/12/16 10:02:22;;;;;;;23.83;9.77;;;8.40;99.90;;;;;;5094186;28;20024;-59
2021/12/16 10:05:21;;;;;;;;;;;;;;;;;;;;;
2021/12/16 10:07:54;;;;;;;28.15;9.70;;;8.60;99.90;;;;;;5093756;28;20038;-60
2021/12/16 10:10:26;;;;;;;22.33;11.48;;;8.60;99.90;;;;;;5093758;28;20475;-59
2021/12/16 10:12:55;;;;;;;21.35;11.15;;;8.60;99.90;;;;;;5089172;28;20040;-59
2021/12/16 10:18:04;;;;;;;13.52;8.80;;;8.70;99.90;;;;;;5092378;28;20044;-60
2021/12/16 10:20:35;;;;;;;26.27;10.50;;;8.70;99.90;;;;;;5092249;28;20032;-59
2021/12/16 10:23:13;;;;;;;24.42;10.02;;;8.70;99.90;;;;;;5092793;28;20020;-59
2021/12/16 10:25:52;;;;;;;19.25;11.10;;;8.80;99.90;;;;;;5093870;28;20027;-60
2021/12/16 10:28:24;;;;;;;20.75;11.40;;;8.80;99.90;;;;;;5093537;28;20054;-59
2021/12/16 10:31:00;;;;;;;16.90;10.05;;;8.90;99.90;;;;;;5090686;28;20342;-60
2021/12/16 10:33:30;;;;;;;22.40;11.27;;;9.00;99.90;;;;;;5078503;28;20519;-60
2021/12/16 10:36:23;;;;;;;24.75;11.65;;;9.00;99.90;;;;;;5092920;28;20035;-60
2021/12/16 10:38:59;;;;;;;13.73;10.77;;;9.10;99.90;;;;;;5087576;28;20033;-60
2021/12/16 10:41:36;;;;;;;14.57;10.25;;;9.10;99.90;;;;;;5080630;28;20373;-60
2021/12/16 10:44:30;;;;;;;17.17;11.93;;;9.20;99.90;;;;;;5093354;28;20024;-60
2021/12/16 10:47:23;;;;;;;18.63;11.15;;;9.20;99.90;;;;;;5084836;28;20040;-60
2021/12/16 10:50:27;;;;;;;15.68;10.20;;;9.20;99.90;;;;;;5090764;28;20036;-59
2021/12/16 10:52:53;;;;;;;15.80;12.00;;;9.20;99.90;;;;;;5072107;28;20509;-60
2021/12/16 10:55:18;;;;;;;15.30;12.52;;;9.20;99.90;;;;;;5093012;28;20020;-60
2021/12/16 10:57:50;;;;;;;17.70;11.82;;;9.20;99.90;;;;;;5092663;28;20032;-59
2021/12/16 11:00:18;;;;;;;15.00;10.95;;;9.30;99.90;;;;;;5092542;28;20035;-60
2021/12/16 11:02:44;;;;;;;18.27;13.80;;;9.30;99.90;;;;;;5093152;28;20051;-60
2021/12/16 11:05:23;;;;;;;21.05;13.45;;;9.30;99.90;;;;;;5092924;28;20365;-60
2021/12/16 11:07:52;;;;;;;16.75;12.23;;;9.30;99.90;;;;;;5092639;28;20047;-60
2021/12/16 11:10:27;;;;;;;19.42;11.68;;;9.40;99.90;;;;;;5092873;28;20459;-60
2021/12/16 11:13:13;;;;;;;16.67;11.20;;;9.40;99.90;;;;;;5093163;28;20093;-60
2021/12/16 11:15:43;;;;;;;14.27;10.80;;;9.50;99.90;;;;;;5092605;28;20024;-60
2021/12/16 11:18:20;;;;;;;22.45;12.27;;;9.50;99.90;;;;;;5092364;28;20048;-60
2021/12/16 11:21:09;;;;;;;16.48;10.93;;;9.50;99.90;;;;;;5092506;28;20020;-60
2021/12/16 11:23:40;;;;;;;17.77;10.65;;;9.60;99.90;;;;;;5092586;28;20016;-60
2021/12/16 11:26:13;;;;;;;13.05;9.93;;;9.70;99.90;;;;;;5092519;28;20020;-60
2021/12/16 11:28:49;;;;;;;21.85;11.77;;;9.70;99.90;;;;;;5092370;28;20028;-60
2021/12/16 11:31:18;;;;;;;14.82;11.23;;;9.70;99.90;;;;;;5092469;28;20028;-60
2021/12/16 11:34:09;;;;;;;16.23;11.98;;;9.80;99.90;;;;;;5092316;28;20491;-60
2021/12/16 11:36:41;;;;;;;14.93;11.82;;;9.90;99.90;;;;;;5052935;28;20033;-60
2021/12/16 11:39:09;;;;;;;20.52;12.35;;;9.90;99.90;;;;;;5071406;28;20499;-60
2021/12/16 11:41:37;;;;;;;20.67;12.35;;;9.80;99.90;;;;;;5071922;28;20518;-60
2021/12/16 11:44:10;;;;;;;23.63;16.88;;;9.90;99.90;;;;;;5080840;28;20129;-60
2021/12/16 11:46:41;;;;;;;26.85;16.17;;;9.80;99.90;;;;;;5091266;28;20129;-60
2021/12/16 11:49:34;;;;;;;26.52;18.08;;;9.70;99.90;;;;;;5088653;28;20024;-60
2021/12/16 11:52:40;;;;;;;23.67;17.15;;;9.70;99.90;;;;;;5087377;28;20028;-60
2021/12/16 11:55:12;;;;;;;23.85;16.80;;;9.70;99.90;;;;;;5053079;28;20032;-60
2021/12/16 11:57:51;;;;;;;28.80;16.40;;;9.60;99.90;;;;;;5091523;28;20032;-60
2021/12/16 12:00:22;;;;;;;24.83;17.08;;;9.70;99.90;;;;;;5091872;28;20541;-60
2021/12/16 12:02:57;;;;;;;21.02;15.82;;;9.70;99.90;;;;;;5092005;28;20477;-60
2021/12/16 12:05:46;;;;;;;23.95;14.30;;;9.70;99.90;;;;;;5091964;28;20024;-60
2021/12/16 12:08:14;;;;;;;29.83;13.43;;;9.90;99.90;;;;;;5091779;28;20031;-59
2021/12/16 12:13:43;;;;;;;17.40;11.73;;;10.00;99.90;;;;;;5078280;28;20067;-60
2021/12/16 12:16:15;;;;;;;14.88;12.00;;;10.10;99.90;;;;;;5073418;28;20035;-60
2021/12/16 12:18:52;;;;;;;15.57;12.05;;;10.20;99.90;;;;;;5087947;28;20044;-60
2021/12/16 12:21:36;;;;;;;19.92;12.50;;;10.20;99.90;;;;;;5086638;28;20480;-60
2021/12/16 12:24:22;;;;;;;25.25;12.88;;;10.30;99.90;;;;;;5087301;28;20030;-60
2021/12/16 12:26:53;;;;;;;20.08;12.50;;;10.20;99.90;;;;;;5090697;28;20107;-60
2021/12/16 12:29:46;;;;;;;20.55;12.70;;;10.30;99.90;;;;;;5072707;28;20016;-60
2021/12/16 12:39:20;;;;;;;;;;;;;;;;;;;;;
2021/12/16 12:41:47;;;;;;;15.23;11.82;;;10.40;99.90;;;;;;5047690;28;20031;-60
2021/12/16 12:44:13;;;;;;;16.00;11.02;;;10.50;99.90;;;;;;5087705;28;20496;-60
2021/12/16 12:46:39;;;;;;;16.65;12.15;;;10.60;99.90;;;;;;5091743;28;20391;-60
2021/12/16 12:49:12;;;;;;;17.75;13.60;;;10.70;99.90;;;;;;5094406;28;20026;-60
2021/12/16 12:51:45;;;;;;;16.88;11.90;;;10.80;99.90;;;;;;5094001;28;20028;-60
2021/12/16 12:54:20;;;;;;;15.82;12.10;;;10.90;99.90;;;;;;5092478;28;20106;-60
2021/12/16 12:56:47;;;;;;;23.98;14.88;;;10.90;99.90;;;;;;5089601;28;20066;-60
2021/12/16 12:59:15;;;;;;;22.48;15.15;;;10.90;99.90;;;;;;5093665;28;20024;-60
2021/12/16 13:01:55;;;;;;;22.25;17.25;;;10.90;99.90;;;;;;5094273;28;20023;-60
2021/12/16 13:04:24;;;;;;;;;;;11.00;99.90;;;;;;5089631;28;20020;-61
2021/12/16 13:07:00;;;;;;;18.98;13.38;;;10.80;99.90;;;;;;5094242;28;19904;-60
2021/12/16 13:09:38;;;;;;;16.92;12.88;;;10.90;99.90;;;;;;5088497;28;20028;-60
2021/12/16 13:12:36;;;;;;;18.77;14.40;;;10.90;99.90;;;;;;5091390;28;20031;-61
2021/12/16 13:15:20;;;;;;;19.15;13.98;;;10.90;99.90;;;;;;5076824;28;20052;-61
2021/12/16 13:23:31;;;;;;;17.52;12.90;;;11.00;99.90;;;;;;5094946;28;20134;-60
2021/12/16 13:26:25;;;;;;;16.50;12.18;;;11.00;99.90;;;;;;5095004;28;20107;-61
2021/12/16 13:29:11;;;;;;;19.98;12.18;;;11.20;99.90;;;;;;5062159;28;20024;-60
2021/12/16 13:35:11;;;;;;;17.98;13.98;;;11.20;99.90;;;;;;5094898;28;20016;-60
2021/12/16 13:37:45;;;;;;;16.15;12.75;;;11.20;99.90;;;;;;5093965;28;20377;-61
2021/12/16 13:40:14;;;;;;;21.92;13.63;;;11.10;99.90;;;;;;5093756;28;20115;-61
2021/12/16 13:42:54;;;;;;;14.77;11.98;;;11.10;99.90;;;;;;5094573;28;20036;-60
2021/12/16 13:45:27;;;;;;;20.38;14.23;;;11.10;99.90;;;;;;5094408;28;20069;-60
2021/12/16 14:00:06;;;;;;;16.08;12.10;;;11.00;99.90;;;;;;5093329;28;20036;-60
2021/12/16 14:05:33;;;;;;;12.75;10.25;;;11.00;99.90;;;;;;5094543;28;20024;-60
2021/12/16 14:08:08;;;;;;;19.35;12.00;;;10.90;99.90;;;;;;5094064;28;20028;-60
2021/12/16 14:10:44;;;;;;;14.25;11.52;;;10.80;99.90;;;;;;5094000;28;20093;-61
2021/12/16 14:17:29;;;;;;;16.48;11.25;;;10.80;99.90;;;;;;5045439;28;20075;-61
2021/12/16 14:23:13;;;;;;;14.93;11.45;;;10.70;99.90;;;;;;5073668;28;20067;-60
2021/12/16 14:34:50;;;;;;;16.85;10.90;;;10.60;99.90;;;;;;5093461;28;20030;-60
2021/12/16 14:45:56;;;;;;;;;;;;;;;;;;;;;
2021/12/16 14:51:33;;;;;;;15.45;10.90;;;10.30;99.90;;;;;;5050566;28;20044;-60
2021/12/16 14:54:01;;;;;;;15.13;12.63;;;10.20;99.90;;;;;;5087996;28;20035;-60
2021/12/16 14:56:42;;;;;;;16.98;14.27;;;10.20;99.90;;;;;;5093050;28;20036;-60
2021/12/16 14:59:19;;;;;;;25.88;14.45;;;10.00;99.90;;;;;;5092663;28;20032;-60
2021/12/16 15:01:49;;;;;;;25.00;13.70;;;9.80;99.90;;;;;;5091616;28;20106;-60
2021/12/16 15:04:21;;;;;;;14.85;12.35;;;9.60;99.90;;;;;;5092852;28;20052;-60
2021/12/16 15:06:53;;;;;;;15.50;10.85;;;9.60;99.90;;;;;;5092973;28;20022;-61
2021/12/16 15:09:40;;;;;;;16.08;11.10;;;9.60;99.90;;;;;;5092564;28;20069;-60
2021/12/16 15:12:41;;;;;;;20.60;10.52;;;9.70;99.90;;;;;;5092490;28;20024;-60
2021/12/16 15:15:24;;;;;;;25.27;10.30;;;9.80;99.90;;;;;;5092798;28;20032;-61
2021/12/16 15:42:56;;;;;;;16.67;10.02;;;9.80;99.90;;;;;;5092496;28;20038;-61
2021/12/16 15:45:38;;;;;;;18.35;10.13;;;9.80;99.90;;;;;;5091762;28;20030;-60
2021/12/16 15:48:13;;;;;;;16.33;10.20;;;9.80;99.90;;;;;;5087140;28;20039;-61
2021/12/16 15:51:04;;;;;;;16.52;11.70;;;9.70;99.90;;;;;;5089546;28;20024;-61
2021/12/16 15:53:37;;;;;;;20.20;11.45;;;9.70;99.90;;;;;;5080801;28;20039;-60
2021/12/16 15:56:13;;;;;;;20.83;10.95;;;9.70;99.90;;;;;;5088093;28;20035;-61
2021/12/16 16:02:45;;;;;;;13.13;10.23;;;9.70;99.90;;;;;;5091705;28;20031;-60
2021/12/16 16:05:11;;;;;;;19.20;10.45;;;9.70;99.90;;;;;;5074193;28;20749;-60
2021/12/16 16:07:42;;;;;;;17.20;10.10;;;9.60;99.90;;;;;;5064740;28;20024;-60
2021/12/16 16:10:12;;;;;;;20.33;10.38;;;9.60;99.90;;;;;;5073251;28;20054;-60
2021/12/16 16:12:37;;;;;;;18.77;10.68;;;9.70;99.90;;;;;;5091298;28;20463;-60
2021/12/16 16:15:29;;;;;;;19.17;10.35;;;9.60;99.90;;;;;;5087459;28;20028;-60
2021/12/16 16:18:13;;;;;;;17.38;10.82;;;9.70;99.90;;;;;;5064676;28;20063;-60
2021/12/16 16:20:43;;;;;;;20.17;10.27;;;9.60;99.90;;;;;;5071754;28;20021;-60
2021/12/16 16:23:16;;;;;;;17.75;10.73;;;9.60;99.90;;;;;;5076545;28;20032;-60
2021/12/16 16:26:15;;;;;;;18.35;9.57;;;9.60;99.90;;;;;;5078290;28;20074;-60
2021/12/16 16:35:57;;;;;;;17.00;10.90;;;9.50;99.90;;;;;;5041572;28;20039;-60
2021/12/16 16:42:15;;;;;;;18.80;10.40;;;9.50;99.90;;;;;;4989319;28;20050;-60
2021/12/16 16:48:15;;;;;;;16.73;10.52;;;9.50;99.90;;;;;;5081424;28;20062;-61
2021/12/16 16:51:04;;;;;;;;;;;;;;;;;;;;;
2021/12/16 16:54:19;;;;;;;;;;;;;;;;;;;;;
2021/12/16 17:12:10;;;;;;;;;;;;;;;;;;;;;
2021/12/16 17:15:22;;;;;;;17.77;10.32;;;9.30;99.90;;;;;;5067391;28;20391;-61
2021/12/16 17:19:08;;;;;;;17.83;11.02;;;9.20;99.90;;;;;;5077149;28;20101;-61
2021/12/16 17:21:37;;;;;;;13.98;9.57;;;9.20;99.90;;;;;;5077511;28;20067;-61
2021/12/16 17:27:21;;;;;;;15.60;11.45;;;9.20;99.90;;;;;;5064690;28;20029;-61
2021/12/16 17:29:59;;;;;;;17.02;11.82;;;9.10;99.90;;;;;;5077754;28;20017;-61
2021/12/16 17:32:57;;;;;;;16.10;11.25;;;9.10;99.90;;;;;;5077032;28;20059;-61